Aviation Digital Data Service (ADDS)

Output produced by METARs form (1439 UTC 14 February 2016)
found at http://aviationweather.gov/adds/metars/
 
KERI 141413Z 1414/1512 14004KT P6SM VCSH SCT015 OVC025 
     TEMPO 1414/1416 5SM -SHSN BKN015 OVC025 
     FM141600 16005KT P6SM BKN035 
     FM141900 14008KT P6SM SCT035 BKN250 
     FM150000 12006KT P6SM OVC100 
     FM150800 15012KT 4SM -SN OVC035